createdAt,value
2023-03-21T00:02:14.954Z,10.22
2023-03-21T00:05:09.412Z,10.20
2023-03-21T00:08:02.376Z,10.16
2023-03-21T00:10:48.202Z,10.13
2023-03-21T00:13:38.244Z,10.14
2023-03-21T00:16:24.637Z,10.12
2023-03-21T00:19:15.859Z,10.14
2023-03-21T00:22:07.912Z,10.11
2023-03-21T00:24:54.833Z,10.10
2023-03-21T00:27:56.797Z,10.10
2023-03-21T00:30:45.361Z,10.12
2023-03-21T00:33:30.862Z,10.12
2023-03-21T00:36:16.410Z,10.06
2023-03-21T00:39:01.543Z,10.07
2023-03-21T00:41:47.875Z,10.07
2023-03-21T00:44:36.752Z,10.07
2023-03-21T00:47:24.070Z,10.07
2023-03-21T00:50:11.905Z,10.05
2023-03-21T00:52:57.397Z,10.01
2023-03-21T00:55:43.355Z,9.97
2023-03-21T00:58:28.833Z,9.97
2023-03-21T01:01:14.042Z,9.99
2023-03-21T01:04:05.511Z,9.96
2023-03-21T01:06:50.778Z,9.96
2023-03-21T01:09:37.557Z,9.97
2023-03-21T01:12:22.820Z,9.95
2023-03-21T01:15:08.173Z,9.96
2023-03-21T01:17:53.420Z,9.95
2023-03-21T01:20:41.605Z,9.93
2023-03-21T01:23:29.213Z,9.95
2023-03-21T01:26:15.614Z,9.91
2023-03-21T01:29:02.494Z,9.90
2023-03-21T01:31:48.041Z,9.93
2023-03-21T01:34:33.112Z,9.93
2023-03-21T01:37:20.280Z,9.94
2023-03-21T01:40:12.952Z,9.96
2023-03-21T01:42:59.957Z,9.95
2023-03-21T01:46:26.208Z,9.90
2023-03-21T01:49:34.336Z,9.86
2023-03-21T01:52:37.588Z,9.75
2023-03-21T01:55:37.459Z,9.68
2023-03-21T01:58:34.788Z,9.67
2023-03-21T02:01:42.206Z,9.65
2023-03-21T02:04:30.243Z,9.66
2023-03-21T02:07:36.743Z,9.68
2023-03-21T02:10:24.094Z,9.67
2023-03-21T02:13:12.596Z,9.68
2023-03-21T02:16:06.177Z,9.64
2023-03-21T02:19:51.053Z,9.64
2023-03-21T02:22:39.008Z,9.62
2023-03-21T02:25:45.553Z,9.60
2023-03-21T02:28:42.050Z,9.64
2023-03-21T02:31:46.102Z,9.56
2023-03-21T02:34:43.085Z,9.56
2023-03-21T02:37:44.638Z,9.56
2023-03-21T02:40:44.717Z,9.48
2023-03-21T02:43:53.727Z,9.45
2023-03-21T02:47:04.746Z,9.43
2023-03-21T02:50:07.231Z,9.42
2023-03-21T02:52:54.299Z,9.44
2023-03-21T02:55:42.985Z,9.45
2023-03-21T02:58:31.118Z,9.47
2023-03-21T03:01:17.823Z,9.44
2023-03-21T03:04:19.163Z,9.49
2023-03-21T03:07:26.094Z,9.51
2023-03-21T03:10:38.024Z,9.52
2023-03-21T03:13:35.692Z,9.51
2023-03-21T03:16:59.569Z,9.49
2023-03-21T03:20:18.667Z,9.49
2023-03-21T03:23:10.812Z,9.47
2023-03-21T03:26:05.432Z,9.46
2023-03-21T03:28:54.703Z,9.45
2023-03-21T03:31:48.553Z,9.46
2023-03-21T03:34:39.517Z,9.41
2023-03-21T03:37:33.333Z,9.37
2023-03-21T03:40:30.233Z,9.32
2023-03-21T03:43:36.634Z,9.31
2023-03-21T03:46:36.698Z,9.28
2023-03-21T03:49:26.029Z,9.25
2023-03-21T03:52:22.656Z,9.24
2023-03-21T03:55:17.663Z,9.29
2023-03-21T03:58:13.200Z,9.33
2023-03-21T04:01:07.452Z,9.34
2023-03-21T04:04:03.552Z,9.38
2023-03-21T04:06:57.962Z,9.39
2023-03-21T04:09:45.061Z,9.42
2023-03-21T04:12:34.465Z,9.45
2023-03-21T04:15:38.389Z,9.42
2023-03-21T04:18:30.489Z,9.40
2023-03-21T04:21:16.677Z,9.42
2023-03-21T04:24:01.937Z,9.39
2023-03-21T04:26:47.005Z,9.35
2023-03-21T04:29:56.177Z,9.34
2023-03-21T04:32:56.731Z,9.32
2023-03-21T04:35:45.524Z,9.27
2023-03-21T04:38:33.886Z,9.23
2023-03-21T04:41:21.749Z,9.21
2023-03-21T04:44:09.735Z,9.23
2023-03-21T04:46:55.849Z,9.23
2023-03-21T04:49:41.054Z,9.26
2023-03-21T04:52:29.351Z,9.23
2023-03-21T04:55:15.955Z,9.22
2023-03-21T04:58:01.237Z,9.26
2023-03-21T05:00:46.951Z,9.28
2023-03-21T05:03:34.525Z,9.32
2023-03-21T05:06:20.489Z,9.31
2023-03-21T05:09:06.912Z,9.30
2023-03-21T05:11:53.204Z,9.28
2023-03-21T05:14:38.870Z,9.24
2023-03-21T05:17:28.253Z,9.23
2023-03-21T05:20:17.255Z,9.26
2023-03-21T05:23:02.362Z,9.21
2023-03-21T05:25:47.578Z,9.21
2023-03-21T05:28:37.845Z,9.20
2023-03-21T05:31:23.330Z,9.22
2023-03-21T05:34:14.399Z,9.22
2023-03-21T05:37:00.477Z,9.22
2023-03-21T05:39:55.949Z,9.17
2023-03-21T05:42:47.558Z,9.17
2023-03-21T05:45:38.364Z,9.17
2023-03-21T05:48:23.977Z,9.20
2023-03-21T05:51:32.187Z,9.22
2023-03-21T05:54:17.557Z,9.29
2023-03-21T05:57:06.350Z,9.33
2023-03-21T06:00:11.925Z,9.32
2023-03-21T06:03:10.927Z,9.32
2023-03-21T06:06:22.348Z,9.33
2023-03-21T06:09:12.572Z,9.36
2023-03-21T06:12:00.477Z,9.41
2023-03-21T06:14:50.194Z,9.41
2023-03-21T06:17:48.612Z,9.43
2023-03-21T06:20:35.140Z,9.39
2023-03-21T06:23:27.003Z,9.39
2023-03-21T06:26:13.065Z,9.39
2023-03-21T06:28:58.249Z,9.42
2023-03-21T06:31:43.805Z,9.44
2023-03-21T06:34:28.821Z,9.47
2023-03-21T06:37:14.263Z,9.53
2023-03-21T06:40:00.481Z,9.55
2023-03-21T06:42:45.762Z,9.56
2023-03-21T06:45:31.886Z,9.59
2023-03-21T06:48:17.134Z,9.61
2023-03-21T06:51:07.617Z,9.62
2023-03-21T06:53:57.142Z,9.60
2023-03-21T06:56:54.893Z,9.59
2023-03-21T06:59:46.201Z,9.56
2023-03-21T07:02:38.799Z,9.58
2023-03-21T07:05:37.872Z,9.59
2023-03-21T07:08:24.372Z,9.60
2023-03-21T07:11:10.561Z,9.60
2023-03-21T07:13:55.969Z,9.62
2023-03-21T07:16:42.101Z,9.60
2023-03-21T07:19:27.563Z,9.62
2023-03-21T07:22:12.804Z,9.62
2023-03-21T07:25:04.794Z,9.63
2023-03-21T07:27:57.240Z,9.66
2023-03-21T07:30:43.853Z,9.65
2023-03-21T07:33:30.711Z,9.65
2023-03-21T07:36:19.140Z,9.69
2023-03-21T07:39:05.012Z,9.73
2023-03-21T07:41:50.741Z,9.70
2023-03-21T07:44:49.129Z,9.69
2023-03-21T07:47:34.696Z,9.73
2023-03-21T07:50:20.925Z,9.74
2023-03-21T07:53:06.196Z,9.72
2023-03-21T07:55:52.720Z,9.73
2023-03-21T07:58:38.083Z,9.74
2023-03-21T08:01:23.409Z,9.78
2023-03-21T08:04:08.572Z,9.79
2023-03-21T08:06:54.089Z,9.83
2023-03-21T08:09:39.651Z,9.92
2023-03-21T08:12:25.183Z,9.98
2023-03-21T08:15:11.484Z,10.05
2023-03-21T08:17:59.658Z,10.11
2023-03-21T08:20:44.933Z,10.23
2023-03-21T08:23:30.603Z,11.12
2023-03-21T08:26:18.277Z,11.42
2023-03-21T08:29:03.457Z,11.63
2023-03-21T08:31:48.753Z,12.17
2023-03-21T08:34:34.520Z,12.10
2023-03-21T08:37:19.907Z,11.79
2023-03-21T08:40:09.055Z,11.45
2023-03-21T08:42:55.453Z,11.16
2023-03-21T08:45:41.012Z,10.98
2023-03-21T08:48:26.393Z,10.92
2023-03-21T08:51:11.859Z,10.90
2023-03-21T08:53:57.313Z,10.77
2023-03-21T08:56:42.609Z,10.71
2023-03-21T08:59:28.037Z,10.71
2023-03-21T09:02:16.071Z,10.77
2023-03-21T09:05:01.338Z,10.79
2023-03-21T09:07:47.764Z,10.76
2023-03-21T09:10:34.356Z,10.74
2023-03-21T09:13:19.988Z,10.77
2023-03-21T09:16:05.770Z,10.85
2023-03-21T09:18:55.519Z,10.92
2023-03-21T09:21:40.958Z,10.95
2023-03-21T09:24:26.441Z,10.99
2023-03-21T09:27:12.284Z,10.97
2023-03-21T09:29:57.652Z,10.94
2023-03-21T09:32:45.545Z,10.94
2023-03-21T09:35:31.262Z,10.90
2023-03-21T09:38:17.354Z,10.91
2023-03-21T09:41:03.433Z,10.90
2023-03-21T09:44:37.690Z,10.88
2023-03-21T09:47:34.779Z,10.86
2023-03-21T09:50:27.214Z,10.86
2023-03-21T09:53:23.504Z,10.90
2023-03-21T09:56:12.878Z,10.88
2023-03-21T09:59:00.618Z,10.94
2023-03-21T10:01:48.349Z,10.99
2023-03-21T10:04:33.896Z,11.11
2023-03-21T10:07:19.869Z,11.14
2023-03-21T10:10:07.373Z,11.21
2023-03-21T10:12:54.617Z,11.27
2023-03-21T10:15:40.496Z,11.25
2023-03-21T10:18:29.812Z,11.21
2023-03-21T10:21:56.638Z,11.25
2023-03-21T10:24:34.451Z,11.27
2023-03-21T10:27:20.228Z,11.30
2023-03-21T10:30:07.576Z,11.31
2023-03-21T10:32:55.065Z,11.37
2023-03-21T10:35:45.469Z,11.37
2023-03-21T10:38:31.181Z,11.43
2023-03-21T10:41:16.792Z,11.51
2023-03-21T10:44:17.406Z,11.56
2023-03-21T10:47:09.273Z,11.60
2023-03-21T10:50:10.987Z,11.66
2023-03-21T10:53:00.627Z,11.78
2023-03-21T10:55:49.015Z,11.88
2023-03-21T10:58:39.476Z,11.86
2023-03-21T11:01:42.942Z,11.89
2023-03-21T11:04:29.658Z,11.87
2023-03-21T11:07:15.666Z,11.88
2023-03-21T11:10:14.613Z,11.86
2023-03-21T11:13:06.991Z,11.88
2023-03-21T11:16:03.667Z,11.94
2023-03-21T11:18:57.004Z,11.91
2023-03-21T11:21:42.935Z,11.89
2023-03-21T11:24:30.594Z,11.93
2023-03-21T11:27:15.924Z,12.01
2023-03-21T11:30:02.758Z,12.08
2023-03-21T11:32:55.180Z,12.05
2023-03-21T11:35:41.113Z,12.03
2023-03-21T11:38:31.671Z,12.07
2023-03-21T11:41:30.982Z,12.03
2023-03-21T11:44:32.071Z,11.97
2023-03-21T11:47:17.620Z,11.99
2023-03-21T11:50:16.686Z,12.06
2023-03-21T11:53:29.135Z,12.14
2023-03-21T11:56:39.446Z,12.25
2023-03-21T12:00:00.329Z,12.30
2023-03-21T12:03:04.132Z,12.39
2023-03-21T12:06:02.853Z,12.56
2023-03-21T12:09:00.210Z,12.66
2023-03-21T12:12:10.416Z,12.71
2023-03-21T12:15:22.826Z,12.64
2023-03-21T12:18:36.330Z,12.62
2023-03-21T12:21:39.081Z,12.65
2023-03-21T12:24:38.732Z,12.65
2023-03-21T12:27:49.782Z,12.69
2023-03-21T12:30:48.151Z,12.78
2023-03-21T12:33:49.844Z,12.92
2023-03-21T12:37:22.401Z,13.07
2023-03-21T12:40:33.816Z,13.23
2023-03-21T12:43:25.174Z,13.15
2023-03-21T12:46:20.977Z,13.06
2023-03-21T12:49:13.293Z,13.01
2023-03-21T12:52:07.634Z,12.92
2023-03-21T12:54:59.831Z,12.88
2023-03-21T12:57:57.476Z,12.90
2023-03-21T13:00:48.765Z,12.94
2023-03-21T13:03:43.748Z,12.94
2023-03-21T13:06:30.525Z,12.94
2023-03-21T13:09:36.699Z,12.96
2023-03-21T13:12:36.101Z,13.00
2023-03-21T13:15:50.598Z,13.00
2023-03-21T13:18:48.974Z,12.95
2023-03-21T13:22:16.111Z,12.80
2023-03-21T13:25:17.783Z,12.74
2023-03-21T13:28:06.229Z,12.75
2023-03-21T13:30:51.763Z,12.73
2023-03-21T13:33:37.996Z,12.74
2023-03-21T13:36:31.628Z,12.73
2023-03-21T13:39:27.377Z,12.73
2023-03-21T13:42:29.164Z,12.70
2023-03-21T13:45:44.062Z,12.71
2023-03-21T13:48:49.428Z,12.76
2023-03-21T13:51:51.309Z,12.74
2023-03-21T13:54:52.932Z,12.74
2023-03-21T13:57:38.973Z,12.78
2023-03-21T14:00:31.077Z,12.82
2023-03-21T14:03:20.733Z,12.83
2023-03-21T14:06:08.448Z,12.84
2023-03-21T14:08:53.620Z,12.80
2023-03-21T14:11:44.452Z,12.85
2023-03-21T14:14:40.446Z,12.93
2023-03-21T14:17:31.481Z,12.94
2023-03-21T14:20:42.965Z,12.93
2023-03-21T14:23:28.161Z,12.84
2023-03-21T14:26:14.228Z,12.78
2023-03-21T14:29:05.222Z,12.76
2023-03-21T14:31:51.962Z,12.80
2023-03-21T14:34:37.580Z,12.86
2023-03-21T14:37:42.200Z,12.94
2023-03-21T14:40:29.413Z,12.99
2023-03-21T14:43:14.471Z,13.05
2023-03-21T14:46:00.973Z,13.11
2023-03-21T14:48:46.203Z,13.19
2023-03-21T14:51:31.791Z,13.22
2023-03-21T14:54:18.333Z,13.27
2023-03-21T14:57:07.862Z,13.24
2023-03-21T14:59:57.457Z,13.23
2023-03-21T15:02:45.852Z,13.25
2023-03-21T15:05:32.789Z,13.25
2023-03-21T15:08:20.250Z,13.19
2023-03-21T15:11:11.965Z,13.10
2023-03-21T15:14:01.352Z,13.02
2023-03-21T15:16:47.364Z,13.02
2023-03-21T15:19:35.761Z,13.06
2023-03-21T15:22:37.992Z,13.07
2023-03-21T15:25:28.182Z,13.02
2023-03-21T15:28:14.939Z,12.95
2023-03-21T15:31:01.094Z,12.94
2023-03-21T15:33:48.839Z,12.93
2023-03-21T15:36:44.533Z,12.95
2023-03-21T15:39:30.076Z,12.92
2023-03-21T15:42:48.057Z,12.88
2023-03-21T15:45:33.805Z,12.87
2023-03-21T15:48:27.059Z,12.87
2023-03-21T15:51:22.513Z,12.85
2023-03-21T15:54:17.684Z,12.85
2023-03-21T15:57:09.607Z,12.87
2023-03-21T15:59:59.440Z,12.88
2023-03-21T16:02:45.614Z,12.90
2023-03-21T16:05:33.667Z,12.91
2023-03-21T16:08:27.258Z,12.92
2023-03-21T16:11:16.015Z,12.89
2023-03-21T16:14:01.411Z,12.86
2023-03-21T16:16:48.028Z,12.85
2023-03-21T16:19:34.281Z,12.81
2023-03-21T16:22:21.532Z,12.79
2023-03-21T16:25:07.321Z,12.76
2023-03-21T16:27:52.827Z,12.75
2023-03-21T16:30:38.734Z,12.74
2023-03-21T16:33:25.424Z,12.73
2023-03-21T16:36:17.728Z,12.72
2023-03-21T16:39:15.405Z,12.70
2023-03-21T16:42:00.631Z,12.71
2023-03-21T16:44:46.035Z,12.73
2023-03-21T16:47:31.695Z,12.74
2023-03-21T16:50:19.933Z,12.74
2023-03-21T16:53:05.457Z,12.71
2023-03-21T16:55:51.182Z,12.70
2023-03-21T16:58:36.291Z,12.69
2023-03-21T17:01:27.229Z,12.67
2023-03-21T17:04:13.053Z,12.67
2023-03-21T17:06:58.206Z,12.67
2023-03-21T17:09:43.779Z,12.66
2023-03-21T17:12:29.300Z,12.67
2023-03-21T17:15:15.272Z,12.68
2023-03-21T17:18:01.066Z,12.70
2023-03-21T17:20:46.312Z,12.68
2023-03-21T17:23:31.348Z,12.66
2023-03-21T17:26:28.080Z,12.65
2023-03-21T17:29:14.821Z,12.64
2023-03-21T17:32:00.124Z,12.62
2023-03-21T17:34:45.192Z,12.60
2023-03-21T17:37:30.876Z,12.60
2023-03-21T17:40:28.762Z,12.61
2023-03-21T17:43:19.528Z,12.62
2023-03-21T17:46:05.297Z,12.62
2023-03-21T17:48:50.879Z,12.63
2023-03-21T17:51:36.166Z,12.62
2023-03-21T17:54:21.379Z,12.61
2023-03-21T17:57:07.052Z,12.62
2023-03-21T17:59:52.251Z,12.61
2023-03-21T18:02:40.941Z,12.61
2023-03-21T18:05:27.268Z,12.61
2023-03-21T18:08:13.145Z,12.63
2023-03-21T18:10:58.877Z,12.62
2023-03-21T18:13:45.049Z,12.59
2023-03-21T18:16:30.481Z,12.59
2023-03-21T18:19:16.073Z,12.59
2023-03-21T18:22:02.084Z,12.58
2023-03-21T18:24:47.342Z,12.59
2023-03-21T18:27:33.254Z,12.59
2023-03-21T18:30:44.291Z,12.58
2023-03-21T18:33:24.939Z,12.56
2023-03-21T18:36:13.884Z,12.54
2023-03-21T18:39:01.918Z,12.52
2023-03-21T18:41:48.058Z,12.51
2023-03-21T18:44:37.778Z,12.49
2023-03-21T18:47:23.533Z,12.48
2023-03-21T18:50:14.407Z,12.46
2023-03-21T18:53:00.276Z,12.45
2023-03-21T18:55:47.922Z,12.45
2023-03-21T18:58:34.537Z,12.44
2023-03-21T19:01:20.077Z,12.44
2023-03-21T19:04:20.864Z,12.44
2023-03-21T19:07:08.567Z,12.44
2023-03-21T19:10:19.843Z,12.41
2023-03-21T19:12:59.045Z,12.42
2023-03-21T19:15:44.480Z,12.42
2023-03-21T19:18:53.124Z,13.36
2023-03-21T19:21:37.361Z,14.17
2023-03-21T19:24:28.120Z,13.85
2023-03-21T19:27:14.675Z,13.55
2023-03-21T19:30:13.805Z,13.30
2023-03-21T19:32:59.816Z,13.08
2023-03-21T19:35:46.560Z,12.93
2023-03-21T19:38:31.890Z,12.82
2023-03-21T19:41:19.098Z,12.72
2023-03-21T19:44:05.536Z,12.63
2023-03-21T19:46:51.278Z,12.52
2023-03-21T19:50:06.688Z,12.42
2023-03-21T19:52:42.048Z,12.33
2023-03-21T19:55:27.983Z,12.28
2023-03-21T19:58:16.059Z,12.25
2023-03-21T20:01:01.525Z,12.25
2023-03-21T20:03:47.233Z,12.23
2023-03-21T20:06:32.579Z,12.20
2023-03-21T20:09:49.584Z,12.18
2023-03-21T20:12:23.234Z,12.17
2023-03-21T20:15:17.080Z,12.17
2023-03-21T20:18:07.245Z,12.15
2023-03-21T20:20:53.261Z,12.12
2023-03-21T20:23:39.157Z,12.09
2023-03-21T20:26:24.561Z,12.05
2023-03-21T20:30:05.382Z,12.04
2023-03-21T20:32:16.214Z,12.06
2023-03-21T20:35:13.596Z,12.07
2023-03-21T20:38:04.398Z,12.05
2023-03-21T20:40:49.585Z,12.02
2023-03-21T20:46:41.693Z,11.92
2023-03-21T20:49:28.210Z,11.92
2023-03-21T20:52:54.425Z,11.89
2023-03-21T20:55:21.441Z,11.86
2023-03-21T20:58:27.206Z,11.85
2023-03-21T21:01:17.338Z,11.80
2023-03-21T21:04:03.490Z,11.77
2023-03-21T21:06:49.329Z,11.79
2023-03-21T21:09:34.432Z,11.79
2023-03-21T21:12:19.986Z,11.77
2023-03-21T21:15:07.727Z,11.75
2023-03-21T21:18:11.791Z,11.72
2023-03-21T21:20:58.860Z,11.69
2023-03-21T21:23:44.202Z,11.66
2023-03-21T21:26:29.281Z,11.65
2023-03-21T21:29:17.082Z,11.65
2023-03-21T21:32:02.460Z,11.65
2023-03-21T21:34:48.474Z,11.64
2023-03-21T21:37:36.141Z,11.65
2023-03-21T21:40:23.261Z,11.61
2023-03-21T21:43:08.754Z,11.60
2023-03-21T21:45:54.815Z,11.60
2023-03-21T21:48:40.944Z,11.57
2023-03-21T21:51:26.539Z,11.58
2023-03-21T21:54:18.481Z,11.56
2023-03-21T21:57:03.969Z,11.55
2023-03-21T21:59:54.310Z,11.55
2023-03-21T22:02:40.702Z,11.55
2023-03-21T22:05:26.729Z,11.56
2023-03-21T22:08:12.315Z,11.55
2023-03-21T22:10:57.761Z,11.55
2023-03-21T22:13:43.552Z,11.54
2023-03-21T22:16:29.087Z,11.53
2023-03-21T22:19:14.492Z,11.53
2023-03-21T22:21:59.785Z,11.51
2023-03-21T22:24:44.919Z,11.50
2023-03-21T22:27:30.446Z,11.52
2023-03-21T22:30:17.317Z,11.51
2023-03-21T22:33:09.694Z,11.51
2023-03-21T22:35:55.139Z,11.53
2023-03-21T22:38:41.784Z,11.54
2023-03-21T22:41:27.379Z,11.53
2023-03-21T22:44:13.053Z,11.52
2023-03-21T22:46:58.243Z,11.48
2023-03-21T22:49:45.311Z,11.50
2023-03-21T22:52:30.770Z,11.50
2023-03-21T22:55:16.196Z,11.47
2023-03-21T22:58:01.648Z,11.45
2023-03-21T23:00:47.272Z,11.42
2023-03-21T23:03:32.833Z,11.44
2023-03-21T23:06:19.513Z,11.43
2023-03-21T23:09:05.293Z,11.42
2023-03-21T23:11:50.767Z,11.40
2023-03-21T23:14:35.940Z,11.42
2023-03-21T23:17:20.996Z,11.43
2023-03-21T23:20:08.499Z,11.43
2023-03-21T23:22:53.711Z,11.40
2023-03-21T23:25:42.036Z,11.38
2023-03-21T23:28:27.686Z,11.36
2023-03-21T23:31:16.841Z,11.35
2023-03-21T23:34:02.864Z,11.36
2023-03-21T23:36:48.381Z,11.35
2023-03-21T23:39:34.333Z,11.33
2023-03-21T23:42:19.900Z,11.31
2023-03-21T23:45:06.457Z,11.26
2023-03-21T23:47:51.677Z,11.21
2023-03-21T23:50:37.566Z,11.16
2023-03-21T23:53:23.266Z,11.13
2023-03-21T23:56:13.363Z,11.11
2023-03-21T23:58:59.013Z,11.05
